sensor_id;sensor_type;location;lat;lon;timestamp;pressure;altitude;pressure_sealevel;temperature;humidity
68489;BME280;55481;48.764;8.936;2022-11-06T00:05:03;97390;;;3;83.5
68489;BME280;55481;48.764;8.936;2022-11-06T00:07:34;97380;;;2.9;84
68489;BME280;55481;48.764;8.936;2022-11-06T00:12:29;97370;;;3;83.5
68489;BME280;55481;48.764;8.936;2022-11-06T00:14:59;97360;;;2.9;84
68489;BME280;55481;48.764;8.936;2022-11-06T00:22:32;97380;;;3;83.5
68489;BME280;55481;48.764;8.936;2022-11-06T00:25:03;97380;;;3;83.5
68489;BME280;55481;48.764;8.936;2022-11-06T00:27:35;97380;;;3;83.5
68489;BME280;55481;48.764;8.936;2022-11-06T00:32:41;97380;;;2.9;83.5
68489;BME280;55481;48.764;8.936;2022-11-06T00:35:12;97380;;;2.9;83.5
68489;BME280;55481;48.764;8.936;2022-11-06T00:37:43;97380;;;2.8;84
68489;BME280;55481;48.764;8.936;2022-11-06T00:40:14;97390;;;2.8;84
68489;BME280;55481;48.764;8.936;2022-11-06T00:50:11;97390;;;2.7;84
68489;BME280;55481;48.764;8.936;2022-11-06T00:52:41;97390;;;2.7;84
68489;BME280;55481;48.764;8.936;2022-11-06T00:55:12;97390;;;2.7;83.5
68489;BME280;55481;48.764;8.936;2022-11-06T00:57:42;97390;;;2.7;83.5
68489;BME280;55481;48.764;8.936;2022-11-06T01:00:13;97390;;;2.7;83.5
68489;BME280;55481;48.764;8.936;2022-11-06T01:02:44;97380;;;2.7;83.5
68489;BME280;55481;48.764;8.936;2022-11-06T01:10:22;97390;;;2.6;83.5
68489;BME280;55481;48.764;8.936;2022-11-06T01:12:53;97390;;;2.6;83.5
68489;BME280;55481;48.764;8.936;2022-11-06T01:15:24;97380;;;2.6;84
68489;BME280;55481;48.764;8.936;2022-11-06T01:22:51;97390;;;2.5;83.5
68489;BME280;55481;48.764;8.936;2022-11-06T01:25:21;97390;;;2.6;83.5
68489;BME280;55481;48.764;8.936;2022-11-06T01:27:52;97390;;;2.6;83.5
68489;BME280;55481;48.764;8.936;2022-11-06T01:30:23;97380;;;2.6;83.5
68489;BME280;55481;48.764;8.936;2022-11-06T01:32:54;97390;;;2.6;83.5
68489;BME280;55481;48.764;8.936;2022-11-06T01:35:24;97380;;;2.6;83.5
68489;BME280;55481;48.764;8.936;2022-11-06T01:38:02;97380;;;2.5;83.5
68489;BME280;55481;48.764;8.936;2022-11-06T01:40:38;97370;;;2.5;83.5
68489;BME280;55481;48.764;8.936;2022-11-06T01:43:04;97380;;;2.4;83.5
68489;BME280;55481;48.764;8.936;2022-11-06T01:50:48;97370;;;2.4;84
68489;BME280;55481;48.764;8.936;2022-11-06T01:53:25;97370;;;2.4;84
68489;BME280;55481;48.764;8.936;2022-11-06T01:55:43;97370;;;2.3;84
68489;BME280;55481;48.764;8.936;2022-11-06T02:00:37;97370;;;2.2;84
68489;BME280;55481;48.764;8.936;2022-11-06T02:03:07;97370;;;2.1;84
68489;BME280;55481;48.764;8.936;2022-11-06T02:05:39;97370;;;2.2;84
68489;BME280;55481;48.764;8.936;2022-11-06T02:10:33;97370;;;2.2;84
68489;BME280;55481;48.764;8.936;2022-11-06T02:13:08;97370;;;2.2;84
68489;BME280;55481;48.764;8.936;2022-11-06T02:15:38;97360;;;2.2;83.5
68489;BME280;55481;48.764;8.936;2022-11-06T02:18:16;97360;;;2.2;84
68489;BME280;55481;48.764;8.936;2022-11-06T02:28:10;97350;;;2.2;84
68489;BME280;55481;48.764;8.936;2022-11-06T02:30:45;97340;;;2.2;83.5
68489;BME280;55481;48.764;8.936;2022-11-06T02:35:45;97330;;;2.2;83.5
68489;BME280;55481;48.764;8.936;2022-11-06T02:38:28;97320;;;2.1;83.5
68489;BME280;55481;48.764;8.936;2022-11-06T02:40:56;97310;;;2.1;83.5
68489;BME280;55481;48.764;8.936;2022-11-06T02:43:27;97310;;;2.1;83.5
68489;BME280;55481;48.764;8.936;2022-11-06T02:45:57;97300;;;2.1;83.5
68489;BME280;55481;48.764;8.936;2022-11-06T02:50:49;97290;;;2;83.5
68489;BME280;55481;48.764;8.936;2022-11-06T02:53:22;97290;;;2;83.5
68489;BME280;55481;48.764;8.936;2022-11-06T02:56:01;97290;;;1.9;83.5
68489;BME280;55481;48.764;8.936;2022-11-06T02:58:33;97290;;;1.9;83.5
68489;BME280;55481;48.764;8.936;2022-11-06T03:03:19;97280;;;1.9;83.5
68489;BME280;55481;48.764;8.936;2022-11-06T03:05:52;97270;;;1.8;84
68489;BME280;55481;48.764;8.936;2022-11-06T03:08:25;97270;;;1.9;84
68489;BME280;55481;48.764;8.936;2022-11-06T03:10:58;97280;;;1.9;83.5
68489;BME280;55481;48.764;8.936;2022-11-06T03:13:21;97280;;;1.9;83.5
68489;BME280;55481;48.764;8.936;2022-11-06T03:16:00;97280;;;1.9;83.5
68489;BME280;55481;48.764;8.936;2022-11-06T03:18:23;97280;;;1.8;83.5
68489;BME280;55481;48.764;8.936;2022-11-06T03:25:56;97280;;;1.8;84
68489;BME280;55481;48.764;8.936;2022-11-06T03:31:04;97270;;;1.6;83.5
68489;BME280;55481;48.764;8.936;2022-11-06T03:33:35;97270;;;1.5;84
68489;BME280;55481;48.764;8.936;2022-11-06T03:36:05;97260;;;1.5;84
68489;BME280;55481;48.764;8.936;2022-11-06T03:38:37;97260;;;1.3;84
68489;BME280;55481;48.764;8.936;2022-11-06T03:41:08;97260;;;1.4;84.5
68489;BME280;55481;48.764;8.936;2022-11-06T03:43:44;97260;;;1.5;84
68489;BME280;55481;48.764;8.936;2022-11-06T03:46:16;97260;;;1.6;84
68489;BME280;55481;48.764;8.936;2022-11-06T03:48:40;97260;;;1.4;84
68489;BME280;55481;48.764;8.936;2022-11-06T03:53:36;97260;;;1.4;84.5
68489;BME280;55481;48.764;8.936;2022-11-06T03:56:05;97250;;;1.5;84
68489;BME280;55481;48.764;8.936;2022-11-06T03:58:36;97230;;;1.6;84
68489;BME280;55481;48.764;8.936;2022-11-06T04:01:06;97240;;;1.6;84
68489;BME280;55481;48.764;8.936;2022-11-06T04:03:38;97240;;;1.6;84
68489;BME280;55481;48.764;8.936;2022-11-06T04:06:09;97230;;;1.6;83.5
68489;BME280;55481;48.764;8.936;2022-11-06T04:18:47;97230;;;1.6;83.5
68489;BME280;55481;48.764;8.936;2022-11-06T04:21:24;97220;;;1.6;83.5
68489;BME280;55481;48.764;8.936;2022-11-06T04:26:43;97210;;;1.6;83.5
68489;BME280;55481;48.764;8.936;2022-11-06T04:28:59;97210;;;1.6;83.5
68489;BME280;55481;48.764;8.936;2022-11-06T04:31:32;97210;;;1.6;83.5
68489;BME280;55481;48.764;8.936;2022-11-06T04:36:23;97210;;;1.7;83.5
68489;BME280;55481;48.764;8.936;2022-11-06T04:38:54;97210;;;1.4;83.5
68489;BME280;55481;48.764;8.936;2022-11-06T04:41:26;97210;;;1.7;84.5
68489;BME280;55481;48.764;8.936;2022-11-06T04:46:39;97210;;;1;84
68489;BME280;55481;48.764;8.936;2022-11-06T04:49:06;97210;;;1;84.5
68489;BME280;55481;48.764;8.936;2022-11-06T04:54:09;97200;;;0.9;84.5
68489;BME280;55481;48.764;8.936;2022-11-06T04:56:34;97210;;;1;84.5
68489;BME280;55481;48.764;8.936;2022-11-06T04:59:03;97210;;;0.8;84.5
68489;BME280;55481;48.764;8.936;2022-11-06T05:04:10;97220;;;0.8;85
68489;BME280;55481;48.764;8.936;2022-11-06T05:06:33;97220;;;0.9;85
68489;BME280;55481;48.764;8.936;2022-11-06T05:09:03;97220;;;1.1;84.5
68489;BME280;55481;48.764;8.936;2022-11-06T05:11:33;97220;;;1.2;84.5
68489;BME280;55481;48.764;8.936;2022-11-06T05:18:57;97210;;;1.2;83.5
68489;BME280;55481;48.764;8.936;2022-11-06T05:21:28;97210;;;1.1;84
68489;BME280;55481;48.764;8.936;2022-11-06T05:23:59;97220;;;1.2;84
68489;BME280;55481;48.764;8.936;2022-11-06T05:26:31;97220;;;1.2;83.5
68489;BME280;55481;48.764;8.936;2022-11-06T05:29:01;97220;;;1.2;83.5
68489;BME280;55481;48.764;8.936;2022-11-06T05:34:03;97210;;;1.2;84
68489;BME280;55481;48.764;8.936;2022-11-06T05:36:40;97200;;;1.2;84
68489;BME280;55481;48.764;8.936;2022-11-06T05:39:04;97200;;;1.2;84
68489;BME280;55481;48.764;8.936;2022-11-06T05:41:42;97190;;;1.1;84
68489;BME280;55481;48.764;8.936;2022-11-06T05:49:27;97210;;;1.1;84
68489;BME280;55481;48.764;8.936;2022-11-06T05:51:44;97220;;;1.1;84
68489;BME280;55481;48.764;8.936;2022-11-06T05:56:38;97220;;;1;84
68489;BME280;55481;48.764;8.936;2022-11-06T05:59:09;97220;;;1;84
68489;BME280;55481;48.764;8.936;2022-11-06T06:04:04;97220;;;1;84
68489;BME280;55481;48.764;8.936;2022-11-06T06:14:08;97220;;;1;84
68489;BME280;55481;48.764;8.936;2022-11-06T06:16:38;97200;;;0.9;84
68489;BME280;55481;48.764;8.936;2022-11-06T06:19:08;97200;;;0.8;84
68489;BME280;55481;48.764;8.936;2022-11-06T06:21:40;97190;;;0.8;84.5
68489;BME280;55481;48.764;8.936;2022-11-06T06:26:47;97190;;;0.8;83.5
68489;BME280;55481;48.764;8.936;2022-11-06T06:29:18;97190;;;0.9;83.5
68489;BME280;55481;48.764;8.936;2022-11-06T06:31:49;97190;;;0.9;84
68489;BME280;55481;48.764;8.936;2022-11-06T06:34:19;97190;;;0.8;84
68489;BME280;55481;48.764;8.936;2022-11-06T06:41:46;97190;;;0.8;84
68489;BME280;55481;48.764;8.936;2022-11-06T06:44:16;97180;;;0.9;84
68489;BME280;55481;48.764;8.936;2022-11-06T06:49:17;97180;;;0.9;84
68489;BME280;55481;48.764;8.936;2022-11-06T06:51:48;97180;;;1;84
68489;BME280;55481;48.764;8.936;2022-11-06T06:54:20;97170;;;1;84
68489;BME280;55481;48.764;8.936;2022-11-06T07:02:10;97150;;;1.1;84
68489;BME280;55481;48.764;8.936;2022-11-06T07:04:41;97150;;;1.1;84
68489;BME280;55481;48.764;8.936;2022-11-06T07:07:04;97140;;;1.2;84
68489;BME280;55481;48.764;8.936;2022-11-06T07:11:58;97140;;;1.4;83.5
68489;BME280;55481;48.764;8.936;2022-11-06T07:14:29;97130;;;1.5;83.5
68489;BME280;55481;48.764;8.936;2022-11-06T07:17:00;97130;;;1.6;83.5
68489;BME280;55481;48.764;8.936;2022-11-06T07:19:31;97120;;;1.6;83.5
68489;BME280;55481;48.764;8.936;2022-11-06T07:22:02;97110;;;1.7;83.5
68489;BME280;55481;48.764;8.936;2022-11-06T07:24:33;97110;;;1.7;83
68489;BME280;55481;48.764;8.936;2022-11-06T07:27:10;97100;;;1.7;83.5
68489;BME280;55481;48.764;8.936;2022-11-06T07:34:43;97080;;;1.9;83.5
68489;BME280;55481;48.764;8.936;2022-11-06T07:37:13;97080;;;2;83.5
68489;BME280;55481;48.764;8.936;2022-11-06T07:42:08;97080;;;2.2;83.5
68489;BME280;55481;48.764;8.936;2022-11-06T07:44:38;97080;;;2.3;83.5
68489;BME280;55481;48.764;8.936;2022-11-06T07:47:09;97070;;;2.6;83.5
68489;BME280;55481;48.764;8.936;2022-11-06T07:49:40;97070;;;2.8;83
68489;BME280;55481;48.764;8.936;2022-11-06T07:54:36;97050;;;3;82.5
68489;BME280;55481;48.764;8.936;2022-11-06T07:57:06;97050;;;3;83
68489;BME280;55481;48.764;8.936;2022-11-06T07:59:37;97050;;;3.1;83
68489;BME280;55481;48.764;8.936;2022-11-06T08:02:10;97050;;;3.1;83
68489;BME280;55481;48.764;8.936;2022-11-06T08:04:39;97040;;;3.2;83
68489;BME280;55481;48.764;8.936;2022-11-06T08:07:10;97040;;;3.3;83
68489;BME280;55481;48.764;8.936;2022-11-06T08:09:41;97040;;;3.5;83
68489;BME280;55481;48.764;8.936;2022-11-06T08:12:11;97030;;;3.7;82.5
68489;BME280;55481;48.764;8.936;2022-11-06T08:14:42;97030;;;3.7;82.5
68489;BME280;55481;48.764;8.936;2022-11-06T08:22:15;97050;;;4;82.5
68489;BME280;55481;48.764;8.936;2022-11-06T08:29:53;97050;;;4.2;83
68489;BME280;55481;48.764;8.936;2022-11-06T08:32:24;97050;;;4.4;83
68489;BME280;55481;48.764;8.936;2022-11-06T08:34:54;97050;;;4.6;82.5
68489;BME280;55481;48.764;8.936;2022-11-06T08:37:19;97040;;;4.8;82.5
68489;BME280;55481;48.764;8.936;2022-11-06T08:39:50;97030;;;4.9;82
68489;BME280;55481;48.764;8.936;2022-11-06T08:42:22;97030;;;5.1;82
68489;BME280;55481;48.764;8.936;2022-11-06T08:49:53;97010;;;5.5;81.5
68489;BME280;55481;48.764;8.936;2022-11-06T08:52:23;97010;;;5.5;82
68489;BME280;55481;48.764;8.936;2022-11-06T08:54:54;97020;;;5.5;82
68489;BME280;55481;48.764;8.936;2022-11-06T08:57:25;97020;;;5.7;82
68489;BME280;55481;48.764;8.936;2022-11-06T09:00:09;97010;;;5.9;82
68489;BME280;55481;48.764;8.936;2022-11-06T09:02:34;97010;;;6.1;82
68489;BME280;55481;48.764;8.936;2022-11-06T09:05:04;97010;;;6.1;81.5
68489;BME280;55481;48.764;8.936;2022-11-06T09:07:43;97010;;;6.1;82
68489;BME280;55481;48.764;8.936;2022-11-06T09:10:01;97020;;;6.1;82
68489;BME280;55481;48.764;8.936;2022-11-06T09:20:03;97060;;;6;82.5
68489;BME280;55481;48.764;8.936;2022-11-06T09:22:33;97060;;;6;83
68489;BME280;55481;48.764;8.936;2022-11-06T09:25:04;97060;;;6.1;82.5
68489;BME280;55481;48.764;8.936;2022-11-06T09:27:52;97050;;;6.2;82.5
68489;BME280;55481;48.764;8.936;2022-11-06T09:30:05;97050;;;6.2;82.5
68489;BME280;55481;48.764;8.936;2022-11-06T09:32:51;97040;;;6.3;82.5
68489;BME280;55481;48.764;8.936;2022-11-06T09:35:14;97020;;;6.5;82.5
68489;BME280;55481;48.764;8.936;2022-11-06T09:37:45;97010;;;6.6;82
68489;BME280;55481;48.764;8.936;2022-11-06T09:40:14;97000;;;6.7;82
68489;BME280;55481;48.764;8.936;2022-11-06T09:42:43;96990;;;7.1;81.5
68489;BME280;55481;48.764;8.936;2022-11-06T09:50:15;96980;;;7.5;81
68489;BME280;55481;48.764;8.936;2022-11-06T09:55:15;96970;;;7.8;81
68489;BME280;55481;48.764;8.936;2022-11-06T09:58:17;96980;;;7.9;81
68489;BME280;55481;48.764;8.936;2022-11-06T10:00:28;96980;;;7.9;81
68489;BME280;55481;48.764;8.936;2022-11-06T10:03:00;96980;;;8.2;81
68489;BME280;55481;48.764;8.936;2022-11-06T10:05:30;96980;;;8.2;80.5
68489;BME280;55481;48.764;8.936;2022-11-06T10:08:04;96980;;;8.1;81
68489;BME280;55481;48.764;8.936;2022-11-06T10:13:05;96970;;;8.2;81.5
68489;BME280;55481;48.764;8.936;2022-11-06T10:18:20;96940;;;8.7;81
68489;BME280;55481;48.764;8.936;2022-11-06T10:20:33;96920;;;8.8;80.5
68489;BME280;55481;48.764;8.936;2022-11-06T10:25:40;96920;;;8.9;80.5
68489;BME280;55481;48.764;8.936;2022-11-06T10:28:00;96910;;;9.2;80.5
68489;BME280;55481;48.764;8.936;2022-11-06T10:30:32;96900;;;9.5;80
68489;BME280;55481;48.764;8.936;2022-11-06T10:33:07;96900;;;9.5;80.5
68489;BME280;55481;48.764;8.936;2022-11-06T10:35:42;96890;;;9.6;80.5
68489;BME280;55481;48.764;8.936;2022-11-06T10:38:17;96880;;;9.6;80.5
68489;BME280;55481;48.764;8.936;2022-11-06T10:43:06;96860;;;9.6;80.5
68489;BME280;55481;48.764;8.936;2022-11-06T10:45:33;96860;;;9.5;81
68489;BME280;55481;48.764;8.936;2022-11-06T10:50:32;96860;;;9.1;82
68489;BME280;55481;48.764;8.936;2022-11-06T10:53:02;96860;;;9;82.5
68489;BME280;55481;48.764;8.936;2022-11-06T10:55:50;96850;;;9.1;82
68489;BME280;55481;48.764;8.936;2022-11-06T10:58:02;96830;;;9.3;82
68489;BME280;55481;48.764;8.936;2022-11-06T11:05:36;96820;;;9.3;82
68489;BME280;55481;48.764;8.936;2022-11-06T11:10:48;96800;;;9.2;82
68489;BME280;55481;48.764;8.936;2022-11-06T11:13:13;96800;;;9.3;82
68489;BME280;55481;48.764;8.936;2022-11-06T11:15:43;96800;;;9.4;82
68489;BME280;55481;48.764;8.936;2022-11-06T11:18:16;96780;;;9.5;81.5
68489;BME280;55481;48.764;8.936;2022-11-06T11:21:03;96780;;;9.5;81.5
68489;BME280;55481;48.764;8.936;2022-11-06T11:23:28;96770;;;9.4;81.5
68489;BME280;55481;48.764;8.936;2022-11-06T11:26:20;96760;;;9.5;82
68489;BME280;55481;48.764;8.936;2022-11-06T11:28:37;96760;;;9.6;82
68489;BME280;55481;48.764;8.936;2022-11-06T11:33:17;96760;;;9.7;81.5
68489;BME280;55481;48.764;8.936;2022-11-06T11:35:56;96750;;;9.9;81
68489;BME280;55481;48.764;8.936;2022-11-06T11:46:11;96730;;;10.1;81
68489;BME280;55481;48.764;8.936;2022-11-06T11:51:00;96720;;;10.3;81
68489;BME280;55481;48.764;8.936;2022-11-06T11:55:58;96720;;;10.2;81
68489;BME280;55481;48.764;8.936;2022-11-06T11:58:28;96720;;;10.2;81.5
68489;BME280;55481;48.764;8.936;2022-11-06T12:00:59;96720;;;10.1;81.5
68489;BME280;55481;48.764;8.936;2022-11-06T12:03:32;96710;;;10.4;81
68489;BME280;55481;48.764;8.936;2022-11-06T12:08:24;96700;;;10.7;80.5
68489;BME280;55481;48.764;8.936;2022-11-06T12:11:03;96690;;;10.6;81
68489;BME280;55481;48.764;8.936;2022-11-06T12:13:26;96680;;;10.7;81
68489;BME280;55481;48.764;8.936;2022-11-06T12:15:58;96680;;;10.7;81.5
68489;BME280;55481;48.764;8.936;2022-11-06T12:18:30;96680;;;11;80.5
68489;BME280;55481;48.764;8.936;2022-11-06T12:23:26;96680;;;10.5;81.5
68489;BME280;55481;48.764;8.936;2022-11-06T12:25:58;96690;;;10.3;82
68489;BME280;55481;48.764;8.936;2022-11-06T12:35:58;96670;;;10.1;83
68489;BME280;55481;48.764;8.936;2022-11-06T12:39:00;96670;;;9.9;83
68489;BME280;55481;48.764;8.936;2022-11-06T12:43:43;96660;;;10.1;82.5
68489;BME280;55481;48.764;8.936;2022-11-06T12:46:09;96660;;;10.4;82
68489;BME280;55481;48.764;8.936;2022-11-06T12:51:07;96660;;;10.5;81.5
68489;BME280;55481;48.764;8.936;2022-11-06T12:53:38;96650;;;10.5;82
68489;BME280;55481;48.764;8.936;2022-11-06T13:01:31;96630;;;10.8;82
68489;BME280;55481;48.764;8.936;2022-11-06T13:03:59;96630;;;11;81.5
68489;BME280;55481;48.764;8.936;2022-11-06T13:08:53;96620;;;10.9;81.5
68489;BME280;55481;48.764;8.936;2022-11-06T13:11:21;96610;;;10.9;81.5
68489;BME280;55481;48.764;8.936;2022-11-06T13:16:15;96620;;;10.5;82.5
68489;BME280;55481;48.764;8.936;2022-11-06T13:18:44;96620;;;10.3;82.5
68489;BME280;55481;48.764;8.936;2022-11-06T13:21:17;96610;;;10.2;83
68489;BME280;55481;48.764;8.936;2022-11-06T13:23:47;96610;;;10.3;82.5
68489;BME280;55481;48.764;8.936;2022-11-06T13:26:25;96610;;;10.2;83
68489;BME280;55481;48.764;8.936;2022-11-06T13:29:01;96600;;;10.3;82.5
68489;BME280;55481;48.764;8.936;2022-11-06T13:33:51;96600;;;10.3;82.5
68489;BME280;55481;48.764;8.936;2022-11-06T13:36:18;96600;;;10.3;82.5
68489;BME280;55481;48.764;8.936;2022-11-06T13:38:50;96600;;;10.3;82.5
68489;BME280;55481;48.764;8.936;2022-11-06T13:41:14;96590;;;10.4;82
68489;BME280;55481;48.764;8.936;2022-11-06T13:43:46;96580;;;10.4;82
68489;BME280;55481;48.764;8.936;2022-11-06T13:53:51;96600;;;10.2;82.5
68489;BME280;55481;48.764;8.936;2022-11-06T13:56:23;96600;;;10.2;82.5
68489;BME280;55481;48.764;8.936;2022-11-06T14:01:29;96600;;;9.9;83
68489;BME280;55481;48.764;8.936;2022-11-06T14:04:01;96610;;;9.8;83
68489;BME280;55481;48.764;8.936;2022-11-06T14:06:28;96620;;;9.7;83
68489;BME280;55481;48.764;8.936;2022-11-06T14:08:52;96620;;;9.6;83
68489;BME280;55481;48.764;8.936;2022-11-06T14:11:26;96610;;;9.6;83
68489;BME280;55481;48.764;8.936;2022-11-06T14:13:57;96600;;;9.6;83
68489;BME280;55481;48.764;8.936;2022-11-06T14:16:29;96610;;;9.6;83
68489;BME280;55481;48.764;8.936;2022-11-06T14:26:42;96610;;;9.5;83
68489;BME280;55481;48.764;8.936;2022-11-06T14:29:40;96610;;;9.5;83
68489;BME280;55481;48.764;8.936;2022-11-06T14:32:46;96600;;;9.5;82.5
68489;BME280;55481;48.764;8.936;2022-11-06T14:36:37;96590;;;9.4;82.5
68489;BME280;55481;48.764;8.936;2022-11-06T14:39:08;96590;;;9.3;83
68489;BME280;55481;48.764;8.936;2022-11-06T14:41:49;96580;;;9.3;83
68489;BME280;55481;48.764;8.936;2022-11-06T14:44:03;96570;;;9.3;83
68489;BME280;55481;48.764;8.936;2022-11-06T14:49:06;96560;;;9.2;83
68489;BME280;55481;48.764;8.936;2022-11-06T14:51:34;96570;;;9.2;83
68489;BME280;55481;48.764;8.936;2022-11-06T14:54:13;96580;;;9.2;83
68489;BME280;55481;48.764;8.936;2022-11-06T14:56:35;96580;;;9.2;83
68489;BME280;55481;48.764;8.936;2022-11-06T15:01:43;96580;;;9.2;82.5
68489;BME280;55481;48.764;8.936;2022-11-06T15:04:20;96580;;;9.1;83
68489;BME280;55481;48.764;8.936;2022-11-06T15:06:51;96580;;;9.1;82.5
68489;BME280;55481;48.764;8.936;2022-11-06T15:16:59;96560;;;8.7;83
68489;BME280;55481;48.764;8.936;2022-11-06T15:21:49;96570;;;8.6;83
68489;BME280;55481;48.764;8.936;2022-11-06T15:24:19;96570;;;8.6;83
68489;BME280;55481;48.764;8.936;2022-11-06T15:26:50;96580;;;8.6;83
68489;BME280;55481;48.764;8.936;2022-11-06T15:29:21;96580;;;8.5;83
68489;BME280;55481;48.764;8.936;2022-11-06T15:39:48;96580;;;8.3;83
68489;BME280;55481;48.764;8.936;2022-11-06T15:42:05;96570;;;8.2;83
68489;BME280;55481;48.764;8.936;2022-11-06T15:44:33;96570;;;8.2;83
68489;BME280;55481;48.764;8.936;2022-11-06T15:47:27;96580;;;8.2;83
68489;BME280;55481;48.764;8.936;2022-11-06T15:51:59;96570;;;8.1;83.5
68489;BME280;55481;48.764;8.936;2022-11-06T16:01:57;96560;;;8;83
68489;BME280;55481;48.764;8.936;2022-11-06T16:06:54;96550;;;8;83
68489;BME280;55481;48.764;8.936;2022-11-06T16:09:24;96560;;;8;83
68489;BME280;55481;48.764;8.936;2022-11-06T16:11:56;96540;;;8;83
68489;BME280;55481;48.764;8.936;2022-11-06T16:21:58;96550;;;7.9;83
68489;BME280;55481;48.764;8.936;2022-11-06T16:27:32;96550;;;8;83
68489;BME280;55481;48.764;8.936;2022-11-06T16:29:59;96550;;;8;83
68489;BME280;55481;48.764;8.936;2022-11-06T16:32:40;96560;;;8;83
68489;BME280;55481;48.764;8.936;2022-11-06T16:34:53;96560;;;8;83
68489;BME280;55481;48.764;8.936;2022-11-06T16:39:43;96550;;;8.1;83
68489;BME280;55481;48.764;8.936;2022-11-06T16:42:19;96550;;;8.1;82.5
68489;BME280;55481;48.764;8.936;2022-11-06T16:44:43;96540;;;8.1;82.5
68489;BME280;55481;48.764;8.936;2022-11-06T16:52:25;96550;;;8.2;82.5
68489;BME280;55481;48.764;8.936;2022-11-06T16:57:16;96550;;;8.1;82.5
68489;BME280;55481;48.764;8.936;2022-11-06T16:59:57;96550;;;8.1;82.5
68489;BME280;55481;48.764;8.936;2022-11-06T17:02:18;96540;;;8.1;82.5
68489;BME280;55481;48.764;8.936;2022-11-06T17:04:34;96550;;;8.1;82.5
68489;BME280;55481;48.764;8.936;2022-11-06T17:07:11;96550;;;8.1;82.5
68489;BME280;55481;48.764;8.936;2022-11-06T17:09:35;96550;;;8.1;82.5
68489;BME280;55481;48.764;8.936;2022-11-06T17:17:08;96590;;;8.2;82.5
68489;BME280;55481;48.764;8.936;2022-11-06T17:19:36;96580;;;8.2;82.5
68489;BME280;55481;48.764;8.936;2022-11-06T17:22:08;96580;;;8.2;82.5
68489;BME280;55481;48.764;8.936;2022-11-06T17:24:37;96570;;;8.2;82.5
68489;BME280;55481;48.764;8.936;2022-11-06T17:27:19;96580;;;8.3;82
68489;BME280;55481;48.764;8.936;2022-11-06T17:29:50;96560;;;8.2;82.5
68489;BME280;55481;48.764;8.936;2022-11-06T17:32:20;96570;;;8.2;82.5
68489;BME280;55481;48.764;8.936;2022-11-06T17:34:39;96580;;;8.2;82.5
68489;BME280;55481;48.764;8.936;2022-11-06T17:37:09;96590;;;8.1;82.5
68489;BME280;55481;48.764;8.936;2022-11-06T17:39:40;96570;;;8.1;82.5
68489;BME280;55481;48.764;8.936;2022-11-06T17:47:12;96590;;;8.2;82.5
68489;BME280;55481;48.764;8.936;2022-11-06T17:49:42;96580;;;8.1;82.5
68489;BME280;55481;48.764;8.936;2022-11-06T17:52:19;96570;;;8.2;82.5
68489;BME280;55481;48.764;8.936;2022-11-06T17:54:43;96580;;;8.2;82.5
68489;BME280;55481;48.764;8.936;2022-11-06T17:57:14;96590;;;8.2;82
68489;BME280;55481;48.764;8.936;2022-11-06T17:59:43;96590;;;8.2;82
68489;BME280;55481;48.764;8.936;2022-11-06T18:02:26;96590;;;8.2;82
68489;BME280;55481;48.764;8.936;2022-11-06T18:04:55;96590;;;8.2;82
68489;BME280;55481;48.764;8.936;2022-11-06T18:07:25;96610;;;8.2;82
68489;BME280;55481;48.764;8.936;2022-11-06T18:09:45;96620;;;8.2;82.5
68489;BME280;55481;48.764;8.936;2022-11-06T18:12:15;96630;;;8.2;82
68489;BME280;55481;48.764;8.936;2022-11-06T18:14:46;96620;;;8.2;82
68489;BME280;55481;48.764;8.936;2022-11-06T18:17:16;96630;;;8.1;82.5
68489;BME280;55481;48.764;8.936;2022-11-06T18:19:47;96620;;;8.1;82.5
68489;BME280;55481;48.764;8.936;2022-11-06T18:22:17;96620;;;8.1;82.5
68489;BME280;55481;48.764;8.936;2022-11-06T18:24:47;96610;;;8.1;82.5
68489;BME280;55481;48.764;8.936;2022-11-06T18:27:18;96620;;;8.1;82.5
68489;BME280;55481;48.764;8.936;2022-11-06T18:29:49;96610;;;8.1;82.5
68489;BME280;55481;48.764;8.936;2022-11-06T18:32:31;96610;;;8.1;82.5
68489;BME280;55481;48.764;8.936;2022-11-06T18:35:00;96610;;;8.2;82.5
68489;BME280;55481;48.764;8.936;2022-11-06T18:37:30;96620;;;8.1;82.5
68489;BME280;55481;48.764;8.936;2022-11-06T18:42:21;96600;;;8.1;82.5
68489;BME280;55481;48.764;8.936;2022-11-06T18:47:21;96610;;;8.1;82.5
68489;BME280;55481;48.764;8.936;2022-11-06T18:49:51;96610;;;8;82.5
68489;BME280;55481;48.764;8.936;2022-11-06T18:52:22;96610;;;8;82.5
68489;BME280;55481;48.764;8.936;2022-11-06T18:54:52;96610;;;8;82.5
68489;BME280;55481;48.764;8.936;2022-11-06T18:59:53;96620;;;8.1;82.5
68489;BME280;55481;48.764;8.936;2022-11-06T19:02:24;96620;;;8.1;82.5
68489;BME280;55481;48.764;8.936;2022-11-06T19:07:45;96630;;;8.1;82.5
68489;BME280;55481;48.764;8.936;2022-11-06T19:10:16;96640;;;8.1;82.5
68489;BME280;55481;48.764;8.936;2022-11-06T19:12:36;96660;;;8;82.5
68489;BME280;55481;48.764;8.936;2022-11-06T19:15:06;96670;;;8;82.5
68489;BME280;55481;48.764;8.936;2022-11-06T19:17:36;96670;;;8;82.5
68489;BME280;55481;48.764;8.936;2022-11-06T19:20:06;96670;;;8;82.5
68489;BME280;55481;48.764;8.936;2022-11-06T19:22:26;96660;;;8;82.5
68489;BME280;55481;48.764;8.936;2022-11-06T19:24:56;96660;;;8;82.5
68489;BME280;55481;48.764;8.936;2022-11-06T19:32:28;96680;;;8;82.5
68489;BME280;55481;48.764;8.936;2022-11-06T19:34:59;96680;;;8;82.5
68489;BME280;55481;48.764;8.936;2022-11-06T19:40:11;96690;;;8;82.5
68489;BME280;55481;48.764;8.936;2022-11-06T19:42:40;96680;;;8;82.5
68489;BME280;55481;48.764;8.936;2022-11-06T19:45:11;96690;;;8;82.5
68489;BME280;55481;48.764;8.936;2022-11-06T19:47:29;96690;;;8;82.5
68489;BME280;55481;48.764;8.936;2022-11-06T19:50:00;96700;;;8.1;82.5
68489;BME280;55481;48.764;8.936;2022-11-06T20:00:24;96690;;;7.9;82.5
68489;BME280;55481;48.764;8.936;2022-11-06T20:02:55;96700;;;7.9;82.5
68489;BME280;55481;48.764;8.936;2022-11-06T20:05:14;96700;;;7.8;82.5
68489;BME280;55481;48.764;8.936;2022-11-06T20:07:44;96690;;;7.8;82.5
68489;BME280;55481;48.764;8.936;2022-11-06T20:10:15;96690;;;7.8;83
68489;BME280;55481;48.764;8.936;2022-11-06T20:12:33;96700;;;7.8;83
68489;BME280;55481;48.764;8.936;2022-11-06T20:27:58;96720;;;8.1;82
68489;BME280;55481;48.764;8.936;2022-11-06T20:30:38;96720;;;8.1;82.5
68489;BME280;55481;48.764;8.936;2022-11-06T20:32:49;96720;;;8.1;82.5
68489;BME280;55481;48.764;8.936;2022-11-06T20:35:18;96720;;;8.1;82.5
68489;BME280;55481;48.764;8.936;2022-11-06T20:37:49;96730;;;8;82.5
68489;BME280;55481;48.764;8.936;2022-11-06T20:42:39;96720;;;7.9;82.5